createdAt,value
2022-12-11T00:01:18.655Z,83.15
2022-12-11T00:03:47.759Z,74.93
2022-12-11T00:06:18.615Z,74.57
2022-12-11T00:08:47.344Z,80.97
2022-12-11T00:11:18.604Z,82.60
2022-12-11T00:13:47.068Z,86.18
2022-12-11T00:16:15.376Z,79.63
2022-12-11T00:18:43.970Z,68.03
2022-12-11T00:21:14.657Z,86.83
2022-12-11T00:23:43.524Z,78.90
2022-12-11T00:26:14.658Z,80.65
2022-12-11T00:28:45.719Z,78.65
2022-12-11T00:31:16.359Z,83.20
2022-12-11T00:33:45.067Z,82.00
2022-12-11T00:36:14.822Z,75.95
2022-12-11T00:38:44.026Z,85.63
2022-12-11T00:41:12.694Z,81.75
2022-12-11T00:43:41.222Z,80.82
2022-12-11T00:46:11.247Z,85.88
2022-12-11T00:48:40.053Z,85.43
2022-12-11T00:51:08.328Z,80.10
2022-12-11T00:53:37.253Z,90.85
2022-12-11T00:56:11.473Z,78.28
2022-12-11T00:58:40.185Z,80.32
2022-12-11T01:01:11.675Z,94.82
2022-12-11T01:03:40.807Z,77.07
2022-12-11T01:06:09.798Z,79.50
2022-12-11T01:11:08.255Z,96.57
2022-12-11T01:13:36.769Z,88.63
2022-12-11T01:16:08.804Z,83.75
2022-12-11T01:18:39.043Z,83.28
2022-12-11T01:21:08.697Z,77.03
2022-12-11T01:23:37.546Z,82.82
2022-12-11T01:26:08.377Z,90.32
2022-12-11T01:28:37.267Z,81.78
2022-12-11T01:31:09.438Z,79.63
2022-12-11T01:33:40.422Z,74.00
2022-12-11T01:36:10.631Z,74.25
2022-12-11T01:38:39.227Z,75.93
2022-12-11T01:41:07.857Z,79.83
2022-12-11T01:43:36.617Z,75.40
2022-12-11T01:46:04.787Z,77.63
2022-12-11T01:48:36.788Z,83.10
2022-12-11T01:51:10.275Z,86.72
2022-12-11T01:53:43.024Z,84.82
2022-12-11T01:56:11.857Z,82.82
2022-12-11T01:58:44.198Z,78.93
2022-12-11T02:01:18.292Z,75.13
2022-12-11T02:03:46.931Z,77.43
2022-12-11T02:06:38.108Z,82.57
2022-12-11T02:09:09.338Z,72.57
2022-12-11T02:11:48.658Z,81.50
2022-12-11T02:14:25.687Z,78.93
2022-12-11T02:17:00.673Z,77.65
2022-12-11T02:19:48.511Z,84.93
2022-12-11T02:22:29.081Z,90.28
2022-12-11T02:25:09.548Z,77.47
2022-12-11T02:27:46.053Z,73.57
2022-12-11T02:30:17.492Z,71.97
2022-12-11T02:32:50.153Z,84.28
2022-12-11T02:35:22.672Z,79.85
2022-12-11T02:37:57.985Z,85.47
2022-12-11T02:40:29.396Z,73.63
2022-12-11T02:43:01.193Z,73.25
2022-12-11T02:45:32.717Z,84.22
2022-12-11T02:48:04.457Z,72.38
2022-12-11T02:50:34.916Z,76.72
2022-12-11T02:53:08.507Z,75.60
2022-12-11T02:55:39.076Z,79.18
2022-12-11T02:58:14.067Z,75.00
2022-12-11T03:00:45.200Z,74.50
2022-12-11T03:03:14.057Z,76.63
2022-12-11T03:05:48.123Z,76.57
2022-12-11T03:08:21.635Z,81.03
2022-12-11T03:10:52.137Z,74.70
2022-12-11T03:13:30.115Z,77.22
2022-12-11T03:16:12.380Z,72.10
2022-12-11T03:18:47.456Z,73.53
2022-12-11T03:21:25.812Z,68.03
2022-12-11T03:24:03.004Z,72.72
2022-12-11T03:26:36.714Z,75.25
2022-12-11T03:29:11.476Z,74.03
2022-12-11T03:31:45.997Z,62.80
2022-12-11T03:34:17.711Z,74.50
2022-12-11T03:36:48.865Z,67.60
2022-12-11T03:39:20.119Z,75.88
2022-12-11T03:41:52.292Z,74.32
2022-12-11T03:44:22.099Z,70.10
2022-12-11T03:46:56.221Z,66.65
2022-12-11T03:49:29.042Z,75.00
2022-12-11T03:51:59.693Z,79.55
2022-12-11T03:54:28.938Z,66.40
2022-12-11T03:57:00.124Z,73.68
2022-12-11T03:59:28.295Z,69.60
2022-12-11T04:01:58.471Z,73.20
2022-12-11T04:04:26.863Z,68.03
2022-12-11T04:06:58.423Z,68.75
2022-12-11T04:09:26.553Z,69.13
2022-12-11T04:11:54.925Z,68.13
2022-12-11T04:14:40.385Z,73.05
2022-12-11T04:17:10.313Z,65.20
2022-12-11T04:19:56.357Z,67.65
2022-12-11T04:22:42.248Z,69.35
2022-12-11T04:25:10.504Z,65.82
2022-12-11T04:27:51.054Z,70.55
2022-12-11T04:30:22.045Z,69.20
2022-12-11T04:32:52.293Z,67.30
2022-12-11T04:35:21.299Z,68.68
2022-12-11T04:37:50.176Z,67.90
2022-12-11T04:40:19.991Z,65.38
2022-12-11T04:42:48.766Z,61.80
2022-12-11T04:45:16.859Z,65.23
2022-12-11T04:47:45.342Z,61.83
2022-12-11T04:50:16.236Z,69.05
2022-12-11T04:52:45.290Z,57.45
2022-12-11T04:55:14.399Z,60.58
2022-12-11T04:57:43.037Z,64.78
2022-12-11T05:00:13.185Z,63.45
2022-12-11T05:02:42.961Z,66.13
2022-12-11T05:05:12.315Z,67.88
2022-12-11T05:07:42.419Z,61.10
2022-12-11T05:10:11.392Z,62.58
2022-12-11T05:12:39.877Z,66.78
2022-12-11T05:15:09.343Z,57.90
2022-12-11T05:17:38.196Z,64.45
2022-12-11T05:20:07.149Z,73.10
2022-12-11T05:25:05.543Z,58.78
2022-12-11T05:27:34.670Z,71.32
2022-12-11T05:30:02.828Z,67.63
2022-12-11T05:32:31.204Z,67.80
2022-12-11T05:34:59.260Z,61.08
2022-12-11T05:37:28.563Z,64.07
2022-12-11T05:39:56.635Z,64.97
2022-12-11T05:42:29.046Z,63.60
2022-12-11T05:44:57.363Z,63.92
2022-12-11T05:47:25.917Z,61.03
2022-12-11T05:49:54.078Z,63.97
2022-12-11T05:52:24.477Z,64.73
2022-12-11T05:54:52.661Z,64.70
2022-12-11T05:57:21.100Z,53.80
2022-12-11T05:59:50.665Z,56.22
2022-12-11T06:02:19.859Z,58.53
2022-12-11T06:04:48.275Z,57.28
2022-12-11T06:07:16.866Z,61.50
2022-12-11T06:09:45.097Z,59.10
2022-12-11T06:12:13.561Z,52.90
2022-12-11T06:14:41.822Z,54.30
2022-12-11T06:17:11.574Z,54.55
2022-12-11T06:22:08.070Z,58.92
2022-12-11T06:24:36.178Z,58.17
2022-12-11T06:27:04.657Z,55.90
2022-12-11T06:29:33.063Z,53.35
2022-12-11T06:32:01.797Z,51.63
2022-12-11T06:34:31.343Z,53.03
2022-12-11T06:36:59.730Z,40.78
2022-12-11T06:39:27.865Z,53.70
2022-12-11T06:41:56.771Z,49.83
2022-12-11T06:44:25.099Z,53.38
2022-12-11T06:46:53.447Z,56.30
2022-12-11T06:49:21.822Z,55.88
2022-12-11T06:51:51.634Z,55.92
2022-12-11T06:54:19.772Z,51.75
2022-12-11T06:56:48.292Z,57.83
2022-12-11T06:59:16.596Z,55.50
2022-12-11T07:01:45.049Z,55.43
2022-12-11T07:04:13.172Z,53.05
2022-12-11T07:06:41.663Z,53.47
2022-12-11T07:09:11.192Z,58.85
2022-12-11T07:11:39.716Z,57.05
2022-12-11T07:14:07.915Z,49.83
2022-12-11T07:16:36.685Z,55.90
2022-12-11T07:19:04.852Z,60.33
2022-12-11T07:21:33.334Z,50.80
2022-12-11T07:24:01.594Z,57.20
2022-12-11T07:26:31.503Z,56.58
2022-12-11T07:29:00.272Z,54.00
2022-12-11T07:31:30.435Z,55.00
2022-12-11T07:34:01.610Z,43.60
2022-12-11T07:36:31.043Z,44.15
2022-12-11T07:39:00.491Z,45.42
2022-12-11T07:41:29.290Z,41.80
2022-12-11T07:44:00.566Z,36.40
2022-12-11T07:46:32.393Z,38.10
2022-12-11T07:49:01.997Z,28.42
2022-12-11T07:51:32.719Z,29.55
2022-12-11T07:54:02.824Z,31.10
2022-12-11T07:56:32.305Z,36.38
2022-12-11T07:59:03.588Z,40.72
2022-12-11T08:01:44.523Z,36.33
2022-12-11T08:04:15.753Z,37.53
2022-12-11T08:06:44.996Z,35.47
2022-12-11T08:09:20.920Z,39.63
2022-12-11T08:11:51.087Z,44.75
2022-12-11T08:14:21.010Z,46.22
2022-12-11T08:16:50.109Z,39.85
2022-12-11T08:19:18.598Z,39.53
2022-12-11T08:21:47.086Z,37.38
2022-12-11T08:24:16.574Z,40.38
2022-12-11T08:26:45.059Z,42.28
2022-12-11T08:29:13.152Z,75.32
2022-12-11T08:31:43.627Z,53.60
2022-12-11T08:34:13.922Z,38.60
2022-12-11T08:36:43.989Z,34.78
2022-12-11T08:39:12.198Z,33.97
2022-12-11T08:41:40.751Z,31.30
2022-12-11T08:44:16.347Z,32.27
2022-12-11T08:46:47.162Z,31.02
2022-12-11T08:49:15.511Z,27.92
2022-12-11T08:51:43.879Z,26.17
2022-12-11T08:54:12.338Z,25.35
2022-12-11T08:56:41.062Z,26.27
2022-12-11T08:59:09.180Z,22.05
2022-12-11T09:01:37.979Z,25.43
2022-12-11T09:04:07.858Z,24.60
2022-12-11T09:06:36.342Z,24.10
2022-12-11T09:09:06.041Z,20.13
2022-12-11T09:11:36.936Z,18.33
2022-12-11T09:14:07.994Z,17.42
2022-12-11T09:16:40.184Z,20.73
2022-12-11T09:19:13.982Z,23.20
2022-12-11T09:21:43.487Z,21.20
2022-12-11T09:24:13.563Z,22.40
2022-12-11T09:26:42.676Z,23.80
2022-12-11T09:29:12.238Z,18.75
2022-12-11T09:31:41.592Z,19.80
2022-12-11T09:34:14.557Z,25.25
2022-12-11T09:36:49.083Z,28.42
2022-12-11T09:39:19.093Z,25.88
2022-12-11T09:41:53.336Z,24.52
2022-12-11T09:44:35.921Z,23.27
2022-12-11T09:47:04.445Z,21.58
2022-12-11T09:49:40.283Z,22.13
2022-12-11T09:52:15.147Z,24.15
2022-12-11T09:54:49.226Z,21.05
2022-12-11T09:57:37.087Z,19.92
2022-12-11T10:00:20.209Z,28.42
2022-12-11T10:03:08.951Z,24.77
2022-12-11T10:05:46.614Z,22.00
2022-12-11T10:08:25.228Z,24.30
2022-12-11T10:11:03.266Z,23.93
2022-12-11T10:13:42.544Z,23.38
2022-12-11T10:16:19.670Z,25.80
2022-12-11T10:18:49.845Z,24.35
2022-12-11T10:21:20.959Z,25.30
2022-12-11T10:23:58.602Z,29.13
2022-12-11T10:26:26.808Z,26.33
2022-12-11T10:29:00.490Z,32.65
2022-12-11T10:31:56.998Z,37.40
2022-12-11T10:34:36.195Z,33.78
2022-12-11T10:37:05.731Z,42.30
2022-12-11T10:39:34.076Z,37.08
2022-12-11T10:42:15.493Z,36.22
2022-12-11T10:44:56.148Z,34.38
2022-12-11T10:47:24.326Z,33.83
2022-12-11T10:49:55.996Z,28.42
2022-12-11T10:52:28.201Z,33.58
2022-12-11T10:55:00.638Z,35.40
2022-12-11T10:57:31.034Z,37.72
2022-12-11T11:00:01.790Z,36.58
2022-12-11T11:02:33.606Z,25.05
2022-12-11T11:05:14.157Z,11.88
2022-12-11T11:07:43.929Z,13.05
2022-12-11T11:10:19.123Z,12.23
2022-12-11T11:12:49.231Z,9.40
2022-12-11T11:15:20.767Z,9.75
2022-12-11T11:17:55.573Z,7.72
2022-12-11T11:20:26.956Z,12.25
2022-12-11T11:22:58.242Z,9.40
2022-12-11T11:25:29.023Z,11.05
2022-12-11T11:28:01.230Z,13.50
2022-12-11T11:30:32.623Z,14.10
2022-12-11T11:33:05.375Z,13.82
2022-12-11T11:35:34.223Z,11.35
2022-12-11T11:38:13.330Z,18.38
2022-12-11T11:43:20.717Z,11.63
2022-12-11T11:45:55.049Z,12.25
2022-12-11T11:48:36.375Z,12.85
2022-12-11T11:51:15.197Z,8.85
2022-12-11T11:53:50.833Z,6.93
2022-12-11T11:56:24.121Z,8.27
2022-12-11T11:59:02.300Z,12.32
2022-12-11T12:01:31.614Z,7.33
2022-12-11T12:04:02.647Z,9.18
2022-12-11T12:06:50.706Z,9.10
2022-12-11T12:09:38.785Z,11.38
2022-12-11T12:12:24.674Z,10.90
2022-12-11T12:15:07.493Z,13.75
2022-12-11T12:17:51.898Z,10.45
2022-12-11T12:20:33.489Z,7.93
2022-12-11T12:23:16.398Z,10.15
2022-12-11T12:25:52.716Z,11.40
2022-12-11T12:28:31.655Z,9.05
2022-12-11T12:31:13.533Z,9.52
2022-12-11T12:33:53.867Z,9.43
2022-12-11T12:36:29.254Z,8.27
2022-12-11T12:39:03.320Z,12.35
2022-12-11T12:41:46.166Z,6.70
2022-12-11T12:44:16.584Z,7.22
2022-12-11T12:46:53.111Z,4.32
2022-12-11T12:49:31.325Z,7.68
2022-12-11T12:52:00.479Z,5.80
2022-12-11T12:59:29.904Z,5.45
2022-12-11T13:02:01.164Z,7.53
2022-12-11T13:07:30.116Z,9.82
2022-12-11T13:10:06.244Z,8.00
2022-12-11T13:12:43.910Z,5.03
2022-12-11T13:15:29.472Z,6.30
2022-12-11T13:17:58.530Z,6.57
2022-12-11T13:20:31.803Z,9.65
2022-12-11T13:23:28.465Z,11.02
2022-12-11T13:25:59.108Z,8.40
2022-12-11T13:28:52.206Z,6.60
2022-12-11T13:31:45.377Z,5.05
2022-12-11T13:34:19.517Z,6.70
2022-12-11T13:36:50.336Z,6.30
2022-12-11T13:39:20.626Z,6.75
2022-12-11T13:41:53.909Z,6.32
2022-12-11T13:44:28.952Z,7.93
2022-12-11T13:47:01.013Z,5.43
2022-12-11T13:49:34.721Z,5.55
2022-12-11T13:52:03.671Z,5.90
2022-12-11T13:54:34.957Z,7.22
2022-12-11T13:57:16.433Z,6.10
2022-12-11T13:59:50.563Z,9.35
2022-12-11T14:02:23.461Z,14.38
2022-12-11T14:04:56.021Z,15.07
2022-12-11T14:07:28.745Z,17.55
2022-12-11T14:10:02.463Z,11.30
2022-12-11T14:12:32.196Z,11.82
2022-12-11T14:17:36.712Z,12.48
2022-12-11T14:20:09.006Z,9.10
2022-12-11T14:22:37.775Z,11.13
2022-12-11T14:25:21.844Z,9.82
2022-12-11T14:27:51.944Z,7.93
2022-12-11T14:30:28.602Z,11.10
2022-12-11T14:32:59.609Z,6.53
2022-12-11T14:35:35.542Z,7.20
2022-12-11T14:38:09.086Z,13.30
2022-12-11T14:40:42.668Z,9.77
2022-12-11T14:43:15.295Z,7.70
2022-12-11T14:45:48.571Z,8.85
2022-12-11T14:48:22.489Z,12.90
2022-12-11T14:50:56.038Z,11.45
2022-12-11T14:53:27.219Z,14.90
2022-12-11T14:55:56.902Z,12.48
2022-12-11T14:58:27.824Z,7.40
2022-12-11T15:01:02.117Z,10.27
2022-12-11T15:03:34.389Z,35.60
2022-12-11T15:06:05.816Z,13.63
2022-12-11T15:08:37.011Z,12.70
2022-12-11T15:11:09.892Z,11.65
2022-12-11T15:13:48.262Z,15.05
2022-12-11T15:16:17.963Z,12.70
2022-12-11T15:18:50.685Z,10.70
2022-12-11T15:21:20.214Z,12.93
2022-12-11T15:23:53.218Z,10.75
2022-12-11T15:26:22.514Z,8.93
2022-12-11T15:29:00.961Z,7.40
2022-12-11T15:31:32.813Z,10.38
2022-12-11T15:34:01.248Z,11.98
2022-12-11T15:36:34.805Z,6.10
2022-12-11T15:39:03.876Z,7.97
2022-12-11T15:41:34.833Z,5.15
2022-12-11T15:44:05.193Z,8.10
2022-12-11T15:46:38.220Z,6.35
2022-12-11T15:49:12.644Z,6.28
2022-12-11T15:51:43.144Z,5.45
2022-12-11T15:54:12.177Z,6.10
2022-12-11T15:56:40.990Z,6.23
2022-12-11T15:59:11.156Z,5.72
2022-12-11T16:01:40.634Z,8.48
2022-12-11T16:04:09.111Z,6.80
2022-12-11T16:06:38.081Z,9.70
2022-12-11T16:09:06.788Z,7.95
2022-12-11T16:11:34.982Z,5.22
2022-12-11T16:14:04.568Z,8.70
2022-12-11T16:16:32.966Z,6.60
2022-12-11T16:19:02.705Z,8.75
2022-12-11T16:23:59.185Z,6.68
2022-12-11T16:26:28.230Z,6.38
2022-12-11T16:28:56.595Z,6.32
2022-12-11T16:31:24.687Z,5.35
2022-12-11T16:33:53.169Z,5.13
2022-12-11T16:36:22.955Z,6.45
2022-12-11T16:38:54.238Z,4.78
2022-12-11T16:41:22.940Z,4.22
2022-12-11T16:43:51.675Z,4.63
2022-12-11T16:46:21.996Z,5.15
2022-12-11T16:48:51.039Z,4.45
2022-12-11T16:51:19.224Z,5.00
2022-12-11T16:53:49.061Z,5.13
2022-12-11T16:56:17.889Z,5.10
2022-12-11T16:58:47.628Z,7.30
2022-12-11T17:03:45.846Z,5.20
2022-12-11T17:06:16.221Z,4.75
2022-12-11T17:08:48.925Z,3.88
2022-12-11T17:11:20.511Z,2.25
2022-12-11T17:13:49.721Z,2.30
2022-12-11T17:16:18.174Z,6.00
2022-12-11T17:18:46.703Z,2.83
2022-12-11T17:21:23.535Z,3.53
2022-12-11T17:23:53.281Z,4.95
2022-12-11T17:28:52.702Z,4.00
2022-12-11T17:31:21.352Z,8.80
2022-12-11T17:33:50.323Z,4.93
2022-12-11T17:36:20.736Z,2.97
2022-12-11T17:38:50.290Z,3.35
2022-12-11T17:41:21.184Z,5.13
2022-12-11T17:43:52.018Z,3.65
2022-12-11T17:46:21.072Z,3.13
2022-12-11T17:48:50.235Z,3.90
2022-12-11T17:51:23.971Z,4.27
2022-12-11T17:53:53.307Z,5.38
2022-12-11T17:56:24.041Z,4.63
2022-12-11T17:58:52.889Z,3.42
2022-12-11T18:01:21.120Z,3.97
2022-12-11T18:03:49.790Z,6.63
2022-12-11T18:06:18.810Z,8.23
2022-12-11T18:08:47.182Z,6.88
2022-12-11T18:11:17.188Z,7.80
2022-12-11T18:13:47.533Z,4.90
2022-12-11T18:16:18.024Z,7.88
2022-12-11T18:18:49.053Z,7.78
2022-12-11T18:21:19.488Z,5.00
2022-12-11T18:23:50.441Z,4.28
2022-12-11T18:26:20.553Z,6.32
2022-12-11T18:28:51.495Z,7.03
2022-12-11T18:31:21.413Z,2.65
2022-12-11T18:33:50.768Z,7.40
2022-12-11T18:36:21.018Z,1.83
2022-12-11T18:38:50.137Z,3.22
2022-12-11T18:41:20.039Z,2.40
2022-12-11T18:43:50.458Z,4.25
2022-12-11T18:46:20.972Z,4.07
2022-12-11T18:48:50.787Z,5.13
2022-12-11T18:51:24.072Z,2.30
2022-12-11T18:53:53.796Z,2.60
2022-12-11T18:56:23.185Z,3.05
2022-12-11T18:58:53.714Z,3.78
2022-12-11T19:01:25.100Z,2.58
2022-12-11T19:04:00.457Z,6.15
2022-12-11T19:06:32.045Z,3.13
2022-12-11T19:09:01.653Z,4.70
2022-12-11T19:11:32.513Z,2.17
2022-12-11T19:14:02.361Z,5.07
2022-12-11T19:19:04.751Z,2.42
2022-12-11T19:21:33.940Z,3.47
2022-12-11T19:26:30.817Z,4.57
2022-12-11T19:29:00.268Z,6.95
2022-12-11T19:31:31.850Z,4.63
2022-12-11T19:34:01.912Z,2.88
2022-12-11T19:36:31.468Z,4.85
2022-12-11T19:39:02.201Z,2.50
2022-12-11T19:41:33.363Z,5.32
2022-12-11T19:44:02.337Z,4.97
2022-12-11T19:46:31.867Z,2.83
2022-12-11T19:49:01.083Z,3.35
2022-12-11T19:51:33.782Z,5.82
2022-12-11T19:54:03.722Z,15.18
2022-12-11T19:56:32.894Z,8.40
2022-12-11T20:01:35.241Z,7.03
2022-12-11T20:04:06.175Z,2.42
2022-12-11T20:06:36.596Z,7.82
2022-12-11T20:09:06.132Z,4.00
2022-12-11T20:11:34.885Z,8.40
2022-12-11T20:14:04.092Z,4.60
2022-12-11T20:17:08.772Z,7.97
2022-12-11T20:19:22.374Z,4.80
2022-12-11T20:21:50.478Z,6.93
2022-12-11T20:24:18.978Z,6.80
2022-12-11T20:26:47.202Z,5.13
2022-12-11T20:29:16.044Z,6.70
2022-12-11T20:31:47.748Z,5.57
2022-12-11T20:34:16.092Z,4.95
2022-12-11T20:36:44.349Z,4.47
2022-12-11T20:39:12.686Z,10.23
2022-12-11T20:41:41.030Z,3.50
2022-12-11T20:44:09.454Z,4.13
2022-12-11T20:46:37.540Z,4.18
2022-12-11T20:49:12.949Z,7.70
2022-12-11T20:51:41.579Z,8.38
2022-12-11T20:54:10.739Z,3.40
2022-12-11T20:56:40.775Z,3.38
2022-12-11T20:59:09.179Z,6.85
2022-12-11T21:01:37.431Z,5.68
2022-12-11T21:04:07.733Z,2.40
2022-12-11T21:06:38.681Z,3.55
2022-12-11T21:09:11.682Z,4.28
2022-12-11T21:11:40.028Z,3.55
2022-12-11T21:14:08.752Z,3.97
2022-12-11T21:16:38.382Z,4.50
2022-12-11T21:19:13.674Z,5.50
2022-12-11T21:21:45.724Z,4.00
2022-12-11T21:24:16.651Z,3.60
2022-12-11T21:26:45.066Z,4.47
2022-12-11T21:29:13.613Z,4.55
2022-12-11T21:31:41.814Z,3.78
2022-12-11T21:34:12.112Z,4.80
2022-12-11T21:36:40.374Z,2.45
2022-12-11T21:39:08.765Z,2.77
2022-12-11T21:41:37.223Z,4.65
2022-12-11T21:46:54.360Z,2.33
2022-12-11T21:51:52.688Z,5.40
2022-12-11T21:54:21.144Z,4.25
2022-12-11T21:56:49.700Z,4.20
2022-12-11T21:59:18.135Z,5.68
2022-12-11T22:01:47.112Z,4.28
2022-12-11T22:04:16.742Z,4.35
2022-12-11T22:06:47.571Z,2.80
2022-12-11T22:09:17.862Z,3.40
2022-12-11T22:11:47.528Z,9.13
2022-12-11T22:14:19.121Z,4.43
2022-12-11T22:16:47.429Z,2.22
2022-12-11T22:19:15.847Z,6.85
2022-12-11T22:21:44.103Z,1.58
2022-12-11T22:24:14.263Z,4.37
2022-12-11T22:26:42.397Z,5.18
2022-12-11T22:29:10.731Z,3.72
2022-12-11T22:31:38.774Z,4.68
2022-12-11T22:34:07.088Z,3.38
2022-12-11T22:36:35.178Z,3.53
2022-12-11T22:39:03.563Z,3.15
2022-12-11T22:41:34.000Z,3.33
2022-12-11T22:44:02.434Z,2.50
2022-12-11T22:46:31.375Z,4.32
2022-12-11T22:49:00.600Z,4.50
2022-12-11T22:51:28.696Z,2.90
2022-12-11T22:53:57.263Z,1.55
2022-12-11T22:56:26.214Z,2.95
2022-12-11T22:58:57.263Z,4.78
2022-12-11T23:01:27.810Z,5.22
2022-12-11T23:03:56.212Z,2.63
2022-12-11T23:06:25.985Z,2.25
2022-12-11T23:08:55.336Z,2.75
2022-12-11T23:11:25.991Z,2.22
2022-12-11T23:13:56.231Z,1.95
2022-12-11T23:16:26.173Z,1.55
2022-12-11T23:18:55.478Z,3.58
2022-12-11T23:21:24.405Z,3.30
2022-12-11T23:26:22.349Z,3.00
2022-12-11T23:31:21.113Z,3.85
2022-12-11T23:33:49.458Z,2.22
2022-12-11T23:36:17.884Z,1.92
2022-12-11T23:38:52.583Z,2.58
2022-12-11T23:41:23.326Z,4.57
2022-12-11T23:43:51.723Z,1.50
2022-12-11T23:46:23.282Z,3.25
2022-12-11T23:48:52.843Z,3.25
2022-12-11T23:51:22.522Z,2.25
2022-12-11T23:53:51.698Z,1.33
2022-12-11T23:56:22.296Z,4.88
2022-12-11T23:58:50.875Z,1.88
